Waynoka, Oklahoma
Current Conditions -  °F | °C
As of 12:10 AM on Thursday 23 Oct 2014 (Local Time) from KAVK Reporting Station
Broken Clouds Broken Clouds  
Wind Chill: 59°   Ceiling: 3900
Heat Index: 59°   Visibility: 10mi
Dew Point: 57°   Wind: 9mph
Humidity: 94%   Direction: 180°S
Pressure: 30.08"   Gusts: NA
Location:  36.58°N, 98.88°W
Report Text: KAVK 230510Z AUTO 18008KT 10SM FEW021 SCT027 BKN039 15/14 A3008 RMK AO2
Loading
Personal Weather Stations






























Interactive Weather Map
Tropical Storm Tracking
New forecast layout! Learn more

10-Day Weather Forecast

Advertisements
Track Severe Weather on mobile